sensor_id;sensor_type;location;lat;lon;timestamp;temperature;humidity
7445;DHT22;3764;48.126;11.594;2023-05-07T00:01:39;15.10;99.90
7445;DHT22;3764;48.126;11.594;2023-05-07T00:04:08;15.10;99.90
7445;DHT22;3764;48.126;11.594;2023-05-07T00:06:35;15.00;99.90
7445;DHT22;3764;48.126;11.594;2023-05-07T00:09:02;15.00;99.90
7445;DHT22;3764;48.126;11.594;2023-05-07T00:11:30;15.00;99.90
7445;DHT22;3764;48.126;11.594;2023-05-07T00:13:57;15.00;99.90
7445;DHT22;3764;48.126;11.594;2023-05-07T00:16:24;14.90;99.90
7445;DHT22;3764;48.126;11.594;2023-05-07T00:18:52;14.90;99.90
7445;DHT22;3764;48.126;11.594;2023-05-07T00:21:20;14.90;99.90
7445;DHT22;3764;48.126;11.594;2023-05-07T00:23:48;14.90;99.90
7445;DHT22;3764;48.126;11.594;2023-05-07T00:26:15;14.80;99.90
7445;DHT22;3764;48.126;11.594;2023-05-07T00:28:42;14.80;99.90
7445;DHT22;3764;48.126;11.594;2023-05-07T00:31:09;14.80;99.90
7445;DHT22;3764;48.126;11.594;2023-05-07T00:33:38;14.80;99.90
7445;DHT22;3764;48.126;11.594;2023-05-07T00:36:05;14.80;99.90
7445;DHT22;3764;48.126;11.594;2023-05-07T00:38:34;14.80;99.90
7445;DHT22;3764;48.126;11.594;2023-05-07T00:41:01;14.80;99.90
7445;DHT22;3764;48.126;11.594;2023-05-07T00:43:28;14.70;99.90
7445;DHT22;3764;48.126;11.594;2023-05-07T00:45:56;14.70;99.90
7445;DHT22;3764;48.126;11.594;2023-05-07T00:48:23;14.70;99.90
7445;DHT22;3764;48.126;11.594;2023-05-07T00:50:51;14.70;99.90
7445;DHT22;3764;48.126;11.594;2023-05-07T00:53:18;14.70;99.90
7445;DHT22;3764;48.126;11.594;2023-05-07T00:55:47;14.70;99.90
7445;DHT22;3764;48.126;11.594;2023-05-07T00:58:14;14.60;99.90
7445;DHT22;3764;48.126;11.594;2023-05-07T01:00:41;14.60;99.90
7445;DHT22;3764;48.126;11.594;2023-05-07T01:03:08;14.60;99.90
7445;DHT22;3764;48.126;11.594;2023-05-07T01:05:36;14.50;99.90
7445;DHT22;3764;48.126;11.594;2023-05-07T01:08:04;14.50;99.90
7445;DHT22;3764;48.126;11.594;2023-05-07T01:10:31;14.40;99.90
7445;DHT22;3764;48.126;11.594;2023-05-07T01:13:00;14.40;99.90
7445;DHT22;3764;48.126;11.594;2023-05-07T01:15:28;14.40;99.90
7445;DHT22;3764;48.126;11.594;2023-05-07T01:17:55;14.40;99.90
7445;DHT22;3764;48.126;11.594;2023-05-07T01:20:23;14.40;99.90
7445;DHT22;3764;48.126;11.594;2023-05-07T01:22:52;14.40;99.90
7445;DHT22;3764;48.126;11.594;2023-05-07T01:25:20;14.40;99.90
7445;DHT22;3764;48.126;11.594;2023-05-07T01:27:47;14.40;99.90
7445;DHT22;3764;48.126;11.594;2023-05-07T01:30:14;14.40;99.90
7445;DHT22;3764;48.126;11.594;2023-05-07T01:32:43;14.40;99.90
7445;DHT22;3764;48.126;11.594;2023-05-07T01:35:15;14.40;99.90
7445;DHT22;3764;48.126;11.594;2023-05-07T01:37:44;14.40;99.90
7445;DHT22;3764;48.126;11.594;2023-05-07T01:40:14;14.40;99.90
7445;DHT22;3764;48.126;11.594;2023-05-07T01:42:43;14.40;99.90
7445;DHT22;3764;48.126;11.594;2023-05-07T01:45:10;14.40;99.90
7445;DHT22;3764;48.126;11.594;2023-05-07T01:47:38;14.40;99.90
7445;DHT22;3764;48.126;11.594;2023-05-07T01:50:06;14.30;99.90
7445;DHT22;3764;48.126;11.594;2023-05-07T01:52:36;14.40;99.90
7445;DHT22;3764;48.126;11.594;2023-05-07T01:55:05;14.40;99.90
7445;DHT22;3764;48.126;11.594;2023-05-07T01:57:34;14.30;99.90
7445;DHT22;3764;48.126;11.594;2023-05-07T02:00:01;14.30;99.90
7445;DHT22;3764;48.126;11.594;2023-05-07T02:02:31;14.30;99.90
7445;DHT22;3764;48.126;11.594;2023-05-07T02:04:59;14.30;99.90
7445;DHT22;3764;48.126;11.594;2023-05-07T02:07:27;14.20;99.90
7445;DHT22;3764;48.126;11.594;2023-05-07T02:09:54;14.10;99.90
7445;DHT22;3764;48.126;11.594;2023-05-07T02:12:22;14.10;99.90
7445;DHT22;3764;48.126;11.594;2023-05-07T02:14:50;14.10;99.90
7445;DHT22;3764;48.126;11.594;2023-05-07T02:17:17;14.10;99.90
7445;DHT22;3764;48.126;11.594;2023-05-07T02:19:44;14.10;99.90
7445;DHT22;3764;48.126;11.594;2023-05-07T02:22:11;14.00;99.90
7445;DHT22;3764;48.126;11.594;2023-05-07T02:24:38;14.10;99.90
7445;DHT22;3764;48.126;11.594;2023-05-07T02:27:05;14.10;99.90
7445;DHT22;3764;48.126;11.594;2023-05-07T02:29:33;14.10;99.90
7445;DHT22;3764;48.126;11.594;2023-05-07T02:32:01;14.10;99.90
7445;DHT22;3764;48.126;11.594;2023-05-07T02:34:28;14.00;99.90
7445;DHT22;3764;48.126;11.594;2023-05-07T02:36:55;13.90;99.90
7445;DHT22;3764;48.126;11.594;2023-05-07T02:39:22;13.80;99.90
7445;DHT22;3764;48.126;11.594;2023-05-07T02:41:49;13.70;99.90
7445;DHT22;3764;48.126;11.594;2023-05-07T02:44:16;13.50;99.90
7445;DHT22;3764;48.126;11.594;2023-05-07T02:46:44;13.40;99.90
7445;DHT22;3764;48.126;11.594;2023-05-07T02:49:12;13.30;99.90
7445;DHT22;3764;48.126;11.594;2023-05-07T02:51:39;13.20;99.90
7445;DHT22;3764;48.126;11.594;2023-05-07T02:54:06;13.10;99.90
7445;DHT22;3764;48.126;11.594;2023-05-07T02:56:33;13.20;99.90
7445;DHT22;3764;48.126;11.594;2023-05-07T02:59:00;13.30;99.90
7445;DHT22;3764;48.126;11.594;2023-05-07T03:01:27;13.30;99.90
7445;DHT22;3764;48.126;11.594;2023-05-07T03:03:54;13.30;99.90
7445;DHT22;3764;48.126;11.594;2023-05-07T03:06:23;13.20;99.90
7445;DHT22;3764;48.126;11.594;2023-05-07T03:08:50;13.20;99.90
7445;DHT22;3764;48.126;11.594;2023-05-07T03:11:17;13.20;99.90
7445;DHT22;3764;48.126;11.594;2023-05-07T03:13:45;13.20;99.90
7445;DHT22;3764;48.126;11.594;2023-05-07T03:16:12;13.20;99.90
7445;DHT22;3764;48.126;11.594;2023-05-07T03:18:39;13.30;99.90
7445;DHT22;3764;48.126;11.594;2023-05-07T03:21:06;13.20;99.90
7445;DHT22;3764;48.126;11.594;2023-05-07T03:23:34;13.20;99.90
7445;DHT22;3764;48.126;11.594;2023-05-07T03:26:01;13.30;99.90
7445;DHT22;3764;48.126;11.594;2023-05-07T03:28:29;13.30;99.90
7445;DHT22;3764;48.126;11.594;2023-05-07T03:30:56;13.40;99.90
7445;DHT22;3764;48.126;11.594;2023-05-07T03:33:23;13.50;99.90
7445;DHT22;3764;48.126;11.594;2023-05-07T03:35:50;13.40;99.90
7445;DHT22;3764;48.126;11.594;2023-05-07T03:38:17;13.40;99.90
7445;DHT22;3764;48.126;11.594;2023-05-07T03:40:45;13.30;99.90
7445;DHT22;3764;48.126;11.594;2023-05-07T03:43:13;13.30;99.90
7445;DHT22;3764;48.126;11.594;2023-05-07T03:45:40;13.30;99.90
7445;DHT22;3764;48.126;11.594;2023-05-07T03:48:07;13.30;99.90
7445;DHT22;3764;48.126;11.594;2023-05-07T03:50:34;13.40;99.90
7445;DHT22;3764;48.126;11.594;2023-05-07T03:53:01;13.40;99.90
7445;DHT22;3764;48.126;11.594;2023-05-07T03:55:28;13.40;99.90
7445;DHT22;3764;48.126;11.594;2023-05-07T03:57:57;13.40;99.90
7445;DHT22;3764;48.126;11.594;2023-05-07T04:00:24;13.40;99.90
7445;DHT22;3764;48.126;11.594;2023-05-07T04:02:51;13.30;99.90
7445;DHT22;3764;48.126;11.594;2023-05-07T04:05:18;13.10;99.90
7445;DHT22;3764;48.126;11.594;2023-05-07T04:07:45;13.10;99.90
7445;DHT22;3764;48.126;11.594;2023-05-07T04:10:13;13.20;99.90
7445;DHT22;3764;48.126;11.594;2023-05-07T04:12:40;13.10;99.90
7445;DHT22;3764;48.126;11.594;2023-05-07T04:15:10;13.10;99.90
7445;DHT22;3764;48.126;11.594;2023-05-07T04:17:37;13.10;99.90
7445;DHT22;3764;48.126;11.594;2023-05-07T04:20:05;13.20;99.90
7445;DHT22;3764;48.126;11.594;2023-05-07T04:22:33;13.20;99.90
7445;DHT22;3764;48.126;11.594;2023-05-07T04:25:00;13.20;99.90
7445;DHT22;3764;48.126;11.594;2023-05-07T04:27:27;13.30;99.90
7445;DHT22;3764;48.126;11.594;2023-05-07T04:29:54;13.30;99.90
7445;DHT22;3764;48.126;11.594;2023-05-07T04:32:23;13.30;99.90
7445;DHT22;3764;48.126;11.594;2023-05-07T04:34:51;13.30;99.90
7445;DHT22;3764;48.126;11.594;2023-05-07T04:37:18;13.30;99.90
7445;DHT22;3764;48.126;11.594;2023-05-07T04:39:45;13.30;99.90
7445;DHT22;3764;48.126;11.594;2023-05-07T04:42:14;13.20;99.90
7445;DHT22;3764;48.126;11.594;2023-05-07T04:44:42;13.20;99.90
7445;DHT22;3764;48.126;11.594;2023-05-07T04:47:09;13.30;99.90
7445;DHT22;3764;48.126;11.594;2023-05-07T04:49:38;13.30;99.90
7445;DHT22;3764;48.126;11.594;2023-05-07T04:52:05;13.30;99.90
7445;DHT22;3764;48.126;11.594;2023-05-07T04:54:32;13.30;99.90
7445;DHT22;3764;48.126;11.594;2023-05-07T04:56:59;13.30;99.90
7445;DHT22;3764;48.126;11.594;2023-05-07T04:59:26;13.40;99.90
7445;DHT22;3764;48.126;11.594;2023-05-07T05:01:53;13.30;99.90
7445;DHT22;3764;48.126;11.594;2023-05-07T05:04:20;13.30;99.90
7445;DHT22;3764;48.126;11.594;2023-05-07T05:06:49;13.20;99.90
7445;DHT22;3764;48.126;11.594;2023-05-07T05:09:16;13.10;99.90
7445;DHT22;3764;48.126;11.594;2023-05-07T05:11:43;13.00;99.90
7445;DHT22;3764;48.126;11.594;2023-05-07T05:14:10;13.00;99.90
7445;DHT22;3764;48.126;11.594;2023-05-07T05:16:37;13.00;99.90
7445;DHT22;3764;48.126;11.594;2023-05-07T05:19:05;13.00;99.90
7445;DHT22;3764;48.126;11.594;2023-05-07T05:21:32;13.10;99.90
7445;DHT22;3764;48.126;11.594;2023-05-07T05:24:00;13.10;99.90
7445;DHT22;3764;48.126;11.594;2023-05-07T05:26:27;13.20;99.90
7445;DHT22;3764;48.126;11.594;2023-05-07T05:28:54;13.20;99.90
7445;DHT22;3764;48.126;11.594;2023-05-07T05:31:22;13.30;99.90
7445;DHT22;3764;48.126;11.594;2023-05-07T05:33:49;13.30;99.90
7445;DHT22;3764;48.126;11.594;2023-05-07T05:36:16;13.40;99.90
7445;DHT22;3764;48.126;11.594;2023-05-07T05:38:43;13.40;99.90
7445;DHT22;3764;48.126;11.594;2023-05-07T05:41:12;13.40;99.90
7445;DHT22;3764;48.126;11.594;2023-05-07T05:43:39;13.30;99.90
7445;DHT22;3764;48.126;11.594;2023-05-07T05:46:06;13.30;99.90
7445;DHT22;3764;48.126;11.594;2023-05-07T05:48:34;13.30;99.90
7445;DHT22;3764;48.126;11.594;2023-05-07T05:51:01;13.20;99.90
7445;DHT22;3764;48.126;11.594;2023-05-07T05:53:28;13.20;99.90
7445;DHT22;3764;48.126;11.594;2023-05-07T05:55:55;13.20;99.90
7445;DHT22;3764;48.126;11.594;2023-05-07T05:58:24;13.30;99.90
7445;DHT22;3764;48.126;11.594;2023-05-07T06:00:51;13.30;99.90
7445;DHT22;3764;48.126;11.594;2023-05-07T06:03:19;13.40;99.90
7445;DHT22;3764;48.126;11.594;2023-05-07T06:05:46;13.40;99.90
7445;DHT22;3764;48.126;11.594;2023-05-07T06:08:13;13.50;99.90
7445;DHT22;3764;48.126;11.594;2023-05-07T06:10:40;13.50;99.90
7445;DHT22;3764;48.126;11.594;2023-05-07T06:13:07;13.60;99.90
7445;DHT22;3764;48.126;11.594;2023-05-07T06:15:36;13.70;99.90
7445;DHT22;3764;48.126;11.594;2023-05-07T06:18:03;13.70;99.90
7445;DHT22;3764;48.126;11.594;2023-05-07T06:20:30;13.80;99.90
7445;DHT22;3764;48.126;11.594;2023-05-07T06:22:58;13.80;99.90
7445;DHT22;3764;48.126;11.594;2023-05-07T06:25:25;13.90;99.90
7445;DHT22;3764;48.126;11.594;2023-05-07T06:27:52;13.90;99.90
7445;DHT22;3764;48.126;11.594;2023-05-07T06:30:19;14.00;99.90
7445;DHT22;3764;48.126;11.594;2023-05-07T06:32:47;14.00;99.90
7445;DHT22;3764;48.126;11.594;2023-05-07T06:35:15;14.10;99.90
7445;DHT22;3764;48.126;11.594;2023-05-07T06:37:42;14.10;99.90
7445;DHT22;3764;48.126;11.594;2023-05-07T06:40:10;14.20;99.90
7445;DHT22;3764;48.126;11.594;2023-05-07T06:42:37;14.30;99.90
7445;DHT22;3764;48.126;11.594;2023-05-07T06:45:05;14.30;99.90
7445;DHT22;3764;48.126;11.594;2023-05-07T06:47:32;14.30;99.90
7445;DHT22;3764;48.126;11.594;2023-05-07T06:50:01;14.40;99.90
7445;DHT22;3764;48.126;11.594;2023-05-07T06:52:28;14.50;99.90
7445;DHT22;3764;48.126;11.594;2023-05-07T06:54:55;14.50;99.90
7445;DHT22;3764;48.126;11.594;2023-05-07T06:57:22;14.60;99.90
7445;DHT22;3764;48.126;11.594;2023-05-07T06:59:49;14.70;99.90
7445;DHT22;3764;48.126;11.594;2023-05-07T07:02:16;14.80;99.90
7445;DHT22;3764;48.126;11.594;2023-05-07T07:04:43;14.90;99.90
7445;DHT22;3764;48.126;11.594;2023-05-07T07:07:12;14.90;99.90
7445;DHT22;3764;48.126;11.594;2023-05-07T07:09:39;15.00;99.90
7445;DHT22;3764;48.126;11.594;2023-05-07T07:12:06;15.10;99.90
7445;DHT22;3764;48.126;11.594;2023-05-07T07:14:33;15.10;99.90
7445;DHT22;3764;48.126;11.594;2023-05-07T07:17:00;15.20;99.90
7445;DHT22;3764;48.126;11.594;2023-05-07T07:19:27;15.20;99.90
7445;DHT22;3764;48.126;11.594;2023-05-07T07:21:54;15.30;99.90
7445;DHT22;3764;48.126;11.594;2023-05-07T07:24:23;15.30;99.90
7445;DHT22;3764;48.126;11.594;2023-05-07T07:26:50;15.40;99.90
7445;DHT22;3764;48.126;11.594;2023-05-07T07:29:17;15.40;99.90
7445;DHT22;3764;48.126;11.594;2023-05-07T07:31:44;15.50;99.90
7445;DHT22;3764;48.126;11.594;2023-05-07T07:34:11;15.50;99.90
7445;DHT22;3764;48.126;11.594;2023-05-07T07:36:38;15.60;99.90
7445;DHT22;3764;48.126;11.594;2023-05-07T07:39:05;15.70;99.90
7445;DHT22;3764;48.126;11.594;2023-05-07T07:41:34;15.70;99.90
7445;DHT22;3764;48.126;11.594;2023-05-07T07:44:03;15.80;99.90
7445;DHT22;3764;48.126;11.594;2023-05-07T07:46:33;15.90;99.90
7445;DHT22;3764;48.126;11.594;2023-05-07T07:49:00;15.90;99.90
7445;DHT22;3764;48.126;11.594;2023-05-07T07:51:27;16.00;99.90
7445;DHT22;3764;48.126;11.594;2023-05-07T07:53:54;16.00;99.90
7445;DHT22;3764;48.126;11.594;2023-05-07T07:56:23;16.10;99.90
7445;DHT22;3764;48.126;11.594;2023-05-07T07:58:51;16.10;99.90
7445;DHT22;3764;48.126;11.594;2023-05-07T08:01:18;16.20;99.90
7445;DHT22;3764;48.126;11.594;2023-05-07T08:03:46;16.20;99.90
7445;DHT22;3764;48.126;11.594;2023-05-07T08:06:13;16.30;99.90
7445;DHT22;3764;48.126;11.594;2023-05-07T08:08:40;16.30;99.90
7445;DHT22;3764;48.126;11.594;2023-05-07T08:11:07;16.40;99.90
7445;DHT22;3764;48.126;11.594;2023-05-07T08:13:34;16.50;99.90
7445;DHT22;3764;48.126;11.594;2023-05-07T08:16:03;16.50;99.90
7445;DHT22;3764;48.126;11.594;2023-05-07T08:18:30;16.60;99.90
7445;DHT22;3764;48.126;11.594;2023-05-07T08:20:58;16.60;99.90
7445;DHT22;3764;48.126;11.594;2023-05-07T08:23:25;16.60;99.90
7445;DHT22;3764;48.126;11.594;2023-05-07T08:25:53;16.70;99.90
7445;DHT22;3764;48.126;11.594;2023-05-07T08:28:20;16.70;99.90
7445;DHT22;3764;48.126;11.594;2023-05-07T08:30:47;16.80;99.90
7445;DHT22;3764;48.126;11.594;2023-05-07T08:33:16;16.80;99.90
7445;DHT22;3764;48.126;11.594;2023-05-07T08:35:43;16.90;99.90
7445;DHT22;3764;48.126;11.594;2023-05-07T08:38:10;17.00;99.90
7445;DHT22;3764;48.126;11.594;2023-05-07T08:40:38;17.00;99.90
7445;DHT22;3764;48.126;11.594;2023-05-07T08:43:07;17.10;99.90
7445;DHT22;3764;48.126;11.594;2023-05-07T08:45:34;17.10;99.90
7445;DHT22;3764;48.126;11.594;2023-05-07T08:48:03;17.20;99.90
7445;DHT22;3764;48.126;11.594;2023-05-07T08:50:35;17.20;99.90
7445;DHT22;3764;48.126;11.594;2023-05-07T08:53:03;17.30;99.90
7445;DHT22;3764;48.126;11.594;2023-05-07T08:55:30;17.30;99.90
7445;DHT22;3764;48.126;11.594;2023-05-07T08:57:58;17.40;99.90
7445;DHT22;3764;48.126;11.594;2023-05-07T09:00:26;17.40;99.90
7445;DHT22;3764;48.126;11.594;2023-05-07T09:02:53;17.50;99.90
7445;DHT22;3764;48.126;11.594;2023-05-07T09:05:20;17.50;99.90
7445;DHT22;3764;48.126;11.594;2023-05-07T09:07:49;17.50;99.90
7445;DHT22;3764;48.126;11.594;2023-05-07T09:10:16;17.60;99.90
7445;DHT22;3764;48.126;11.594;2023-05-07T09:12:43;17.60;99.90
7445;DHT22;3764;48.126;11.594;2023-05-07T09:15:10;17.70;99.90
7445;DHT22;3764;48.126;11.594;2023-05-07T09:17:38;17.80;99.90
7445;DHT22;3764;48.126;11.594;2023-05-07T09:20:07;17.80;99.90
7445;DHT22;3764;48.126;11.594;2023-05-07T09:22:37;17.80;99.90
7445;DHT22;3764;48.126;11.594;2023-05-07T09:25:06;17.90;99.90
7445;DHT22;3764;48.126;11.594;2023-05-07T09:27:34;18.00;99.90
7445;DHT22;3764;48.126;11.594;2023-05-07T09:30:03;18.00;99.90
7445;DHT22;3764;48.126;11.594;2023-05-07T09:32:35;18.10;99.90
7445;DHT22;3764;48.126;11.594;2023-05-07T09:35:04;18.10;99.90
7445;DHT22;3764;48.126;11.594;2023-05-07T09:37:31;18.10;99.90
7445;DHT22;3764;48.126;11.594;2023-05-07T09:39:58;18.20;99.90
7445;DHT22;3764;48.126;11.594;2023-05-07T09:42:27;18.20;99.90
7445;DHT22;3764;48.126;11.594;2023-05-07T09:44:54;18.20;99.90
7445;DHT22;3764;48.126;11.594;2023-05-07T09:47:24;18.30;99.90
7445;DHT22;3764;48.126;11.594;2023-05-07T09:49:56;18.40;99.90
7445;DHT22;3764;48.126;11.594;2023-05-07T09:52:23;18.50;99.90
7445;DHT22;3764;48.126;11.594;2023-05-07T09:54:55;18.50;99.90
7445;DHT22;3764;48.126;11.594;2023-05-07T09:57:27;18.50;99.90
7445;DHT22;3764;48.126;11.594;2023-05-07T09:59:56;18.60;99.90
7445;DHT22;3764;48.126;11.594;2023-05-07T10:02:26;18.60;99.90
7445;DHT22;3764;48.126;11.594;2023-05-07T10:04:55;18.60;99.90
7445;DHT22;3764;48.126;11.594;2023-05-07T10:07:24;18.70;99.90
7445;DHT22;3764;48.126;11.594;2023-05-07T10:09:52;18.70;99.90
7445;DHT22;3764;48.126;11.594;2023-05-07T10:12:20;18.70;99.90
7445;DHT22;3764;48.126;11.594;2023-05-07T10:14:50;18.80;99.90
7445;DHT22;3764;48.126;11.594;2023-05-07T10:17:20;18.80;99.90
7445;DHT22;3764;48.126;11.594;2023-05-07T10:19:47;18.80;99.90
7445;DHT22;3764;48.126;11.594;2023-05-07T10:22:16;18.90;99.90
7445;DHT22;3764;48.126;11.594;2023-05-07T10:24:45;18.90;99.90
7445;DHT22;3764;48.126;11.594;2023-05-07T10:27:14;18.90;99.90
7445;DHT22;3764;48.126;11.594;2023-05-07T10:29:48;18.90;99.90
7445;DHT22;3764;48.126;11.594;2023-05-07T10:32:33;18.90;99.90
7445;DHT22;3764;48.126;11.594;2023-05-07T10:35:06;18.90;99.90
7445;DHT22;3764;48.126;11.594;2023-05-07T10:37:34;18.90;99.90
7445;DHT22;3764;48.126;11.594;2023-05-07T10:40:01;18.90;99.90
7445;DHT22;3764;48.126;11.594;2023-05-07T10:42:29;18.90;99.90
7445;DHT22;3764;48.126;11.594;2023-05-07T10:44:56;18.90;99.90
7445;DHT22;3764;48.126;11.594;2023-05-07T10:47:25;18.90;99.90
7445;DHT22;3764;48.126;11.594;2023-05-07T10:53:21;18.90;99.90
7445;DHT22;3764;48.126;11.594;2023-05-07T10:55:53;19.00;99.90
7445;DHT22;3764;48.126;11.594;2023-05-07T10:58:39;19.10;99.90
7445;DHT22;3764;48.126;11.594;2023-05-07T11:01:06;19.10;99.90
7445;DHT22;3764;48.126;11.594;2023-05-07T11:03:34;19.20;99.90
7445;DHT22;3764;48.126;11.594;2023-05-07T11:06:19;19.30;99.90
7445;DHT22;3764;48.126;11.594;2023-05-07T11:08:53;19.30;99.90
7445;DHT22;3764;48.126;11.594;2023-05-07T11:11:44;19.40;99.90
7445;DHT22;3764;48.126;11.594;2023-05-07T11:14:11;19.40;99.90
7445;DHT22;3764;48.126;11.594;2023-05-07T11:16:41;19.50;99.90
7445;DHT22;3764;48.126;11.594;2023-05-07T11:19:10;19.50;99.90
7445;DHT22;3764;48.126;11.594;2023-05-07T11:21:38;19.60;99.90
7445;DHT22;3764;48.126;11.594;2023-05-07T11:24:07;19.60;99.90
7445;DHT22;3764;48.126;11.594;2023-05-07T11:26:47;19.60;99.90
7445;DHT22;3764;48.126;11.594;2023-05-07T11:29:16;19.60;99.90
7445;DHT22;3764;48.126;11.594;2023-05-07T11:31:43;19.70;99.90
7445;DHT22;3764;48.126;11.594;2023-05-07T11:34:12;19.70;99.90
7445;DHT22;3764;48.126;11.594;2023-05-07T11:36:45;19.80;99.90
7445;DHT22;3764;48.126;11.594;2023-05-07T11:39:30;19.90;99.90
7445;DHT22;3764;48.126;11.594;2023-05-07T11:41:59;19.90;99.90
7445;DHT22;3764;48.126;11.594;2023-05-07T11:44:42;20.00;99.90
7445;DHT22;3764;48.126;11.594;2023-05-07T11:47:10;20.10;99.90
7445;DHT22;3764;48.126;11.594;2023-05-07T11:49:38;20.10;99.90
7445;DHT22;3764;48.126;11.594;2023-05-07T11:52:06;20.20;99.90
7445;DHT22;3764;48.126;11.594;2023-05-07T11:54:35;20.20;99.90
7445;DHT22;3764;48.126;11.594;2023-05-07T11:57:03;20.20;99.90
7445;DHT22;3764;48.126;11.594;2023-05-07T11:59:38;20.20;99.90
7445;DHT22;3764;48.126;11.594;2023-05-07T12:02:06;20.20;99.90
7445;DHT22;3764;48.126;11.594;2023-05-07T12:04:33;20.20;99.90
7445;DHT22;3764;48.126;11.594;2023-05-07T12:07:02;20.20;99.90
7445;DHT22;3764;48.126;11.594;2023-05-07T12:09:29;20.20;99.90
7445;DHT22;3764;48.126;11.594;2023-05-07T12:11:56;20.20;99.90
7445;DHT22;3764;48.126;11.594;2023-05-07T12:14:27;20.20;99.90
7445;DHT22;3764;48.126;11.594;2023-05-07T12:16:54;20.30;99.90
7445;DHT22;3764;48.126;11.594;2023-05-07T12:19:22;20.30;99.90
7445;DHT22;3764;48.126;11.594;2023-05-07T12:21:49;20.30;99.90
7445;DHT22;3764;48.126;11.594;2023-05-07T12:24:18;20.40;99.90
7445;DHT22;3764;48.126;11.594;2023-05-07T12:26:46;20.40;99.90
7445;DHT22;3764;48.126;11.594;2023-05-07T12:29:13;20.50;99.90
7445;DHT22;3764;48.126;11.594;2023-05-07T12:31:41;20.40;99.90
7445;DHT22;3764;48.126;11.594;2023-05-07T12:34:10;20.50;99.90
7445;DHT22;3764;48.126;11.594;2023-05-07T12:36:37;20.50;99.90
7445;DHT22;3764;48.126;11.594;2023-05-07T12:39:05;20.50;99.90
7445;DHT22;3764;48.126;11.594;2023-05-07T12:41:52;20.60;99.90
7445;DHT22;3764;48.126;11.594;2023-05-07T12:44:22;20.60;99.90
7445;DHT22;3764;48.126;11.594;2023-05-07T12:46:49;20.60;99.90
7445;DHT22;3764;48.126;11.594;2023-05-07T12:49:16;20.60;99.90
7445;DHT22;3764;48.126;11.594;2023-05-07T12:51:43;20.60;99.90
7445;DHT22;3764;48.126;11.594;2023-05-07T12:54:10;20.70;99.90
7445;DHT22;3764;48.126;11.594;2023-05-07T12:56:39;20.70;99.90
7445;DHT22;3764;48.126;11.594;2023-05-07T12:59:06;20.70;99.90
7445;DHT22;3764;48.126;11.594;2023-05-07T13:01:34;20.70;99.90
7445;DHT22;3764;48.126;11.594;2023-05-07T13:04:03;20.80;99.90
7445;DHT22;3764;48.126;11.594;2023-05-07T13:06:31;20.80;99.90
7445;DHT22;3764;48.126;11.594;2023-05-07T13:08:58;20.80;99.90
7445;DHT22;3764;48.126;11.594;2023-05-07T13:11:25;20.80;99.90
7445;DHT22;3764;48.126;11.594;2023-05-07T13:13:53;20.90;99.90
7445;DHT22;3764;48.126;11.594;2023-05-07T13:16:20;21.00;99.90
7445;DHT22;3764;48.126;11.594;2023-05-07T13:18:48;21.00;99.90
7445;DHT22;3764;48.126;11.594;2023-05-07T13:21:15;20.90;99.90
7445;DHT22;3764;48.126;11.594;2023-05-07T13:23:42;20.90;99.90
7445;DHT22;3764;48.126;11.594;2023-05-07T13:26:09;20.90;99.90
7445;DHT22;3764;48.126;11.594;2023-05-07T13:28:36;20.90;99.90
7445;DHT22;3764;48.126;11.594;2023-05-07T13:31:05;21.00;99.90
7445;DHT22;3764;48.126;11.594;2023-05-07T13:33:32;21.00;99.90
7445;DHT22;3764;48.126;11.594;2023-05-07T13:35:59;21.10;99.90
7445;DHT22;3764;48.126;11.594;2023-05-07T13:38:26;21.10;99.90
7445;DHT22;3764;48.126;11.594;2023-05-07T13:40:53;21.20;99.90
7445;DHT22;3764;48.126;11.594;2023-05-07T13:43:20;21.20;99.90
7445;DHT22;3764;48.126;11.594;2023-05-07T13:45:47;21.30;99.90
7445;DHT22;3764;48.126;11.594;2023-05-07T13:48:16;21.30;99.90
7445;DHT22;3764;48.126;11.594;2023-05-07T13:50:43;21.40;99.90
7445;DHT22;3764;48.126;11.594;2023-05-07T13:53:10;21.50;99.90
7445;DHT22;3764;48.126;11.594;2023-05-07T13:55:37;21.60;99.90
7445;DHT22;3764;48.126;11.594;2023-05-07T13:58:04;21.70;99.90
7445;DHT22;3764;48.126;11.594;2023-05-07T14:00:31;21.80;99.90
7445;DHT22;3764;48.126;11.594;2023-05-07T14:02:58;21.80;99.90
7445;DHT22;3764;48.126;11.594;2023-05-07T14:05:27;21.90;99.90
7445;DHT22;3764;48.126;11.594;2023-05-07T14:07:54;21.90;99.90
7445;DHT22;3764;48.126;11.594;2023-05-07T14:10:22;22.00;99.90
7445;DHT22;3764;48.126;11.594;2023-05-07T14:12:49;22.00;99.90
7445;DHT22;3764;48.126;11.594;2023-05-07T14:15:16;22.00;99.90
7445;DHT22;3764;48.126;11.594;2023-05-07T14:17:43;22.00;99.90
7445;DHT22;3764;48.126;11.594;2023-05-07T14:20:11;22.10;99.90
7445;DHT22;3764;48.126;11.594;2023-05-07T14:22:39;22.00;99.90
7445;DHT22;3764;48.126;11.594;2023-05-07T14:25:07;21.90;99.90
7445;DHT22;3764;48.126;11.594;2023-05-07T14:27:35;21.70;99.90
7445;DHT22;3764;48.126;11.594;2023-05-07T14:30:02;21.60;99.90
7445;DHT22;3764;48.126;11.594;2023-05-07T14:32:29;21.60;99.90
7445;DHT22;3764;48.126;11.594;2023-05-07T14:34:56;21.50;99.90
7445;DHT22;3764;48.126;11.594;2023-05-07T14:37:23;21.50;99.90
7445;DHT22;3764;48.126;11.594;2023-05-07T14:39:52;21.40;99.90
7445;DHT22;3764;48.126;11.594;2023-05-07T14:42:19;21.30;99.90
7445;DHT22;3764;48.126;11.594;2023-05-07T14:44:46;21.20;99.90
7445;DHT22;3764;48.126;11.594;2023-05-07T14:47:14;21.30;99.90
7445;DHT22;3764;48.126;11.594;2023-05-07T14:49:41;21.20;99.90
7445;DHT22;3764;48.126;11.594;2023-05-07T14:52:08;21.30;99.90
7445;DHT22;3764;48.126;11.594;2023-05-07T14:54:37;21.30;99.90
7445;DHT22;3764;48.126;11.594;2023-05-07T14:57:07;21.40;99.90
7445;DHT22;3764;48.126;11.594;2023-05-07T14:59:35;21.40;99.90
7445;DHT22;3764;48.126;11.594;2023-05-07T15:02:02;21.30;99.90
7445;DHT22;3764;48.126;11.594;2023-05-07T15:04:31;21.30;99.90
7445;DHT22;3764;48.126;11.594;2023-05-07T15:06:58;21.20;99.90
7445;DHT22;3764;48.126;11.594;2023-05-07T15:09:25;21.20;99.90
7445;DHT22;3764;48.126;11.594;2023-05-07T15:11:52;21.10;99.90
7445;DHT22;3764;48.126;11.594;2023-05-07T15:14:21;21.10;99.90
7445;DHT22;3764;48.126;11.594;2023-05-07T15:16:48;21.00;99.90
7445;DHT22;3764;48.126;11.594;2023-05-07T15:19:15;21.00;99.90
7445;DHT22;3764;48.126;11.594;2023-05-07T15:21:43;20.90;99.90
7445;DHT22;3764;48.126;11.594;2023-05-07T15:24:10;20.80;99.90
7445;DHT22;3764;48.126;11.594;2023-05-07T15:26:37;20.70;99.90
7445;DHT22;3764;48.126;11.594;2023-05-07T15:29:04;20.60;99.90
7445;DHT22;3764;48.126;11.594;2023-05-07T15:31:37;20.50;99.90
7445;DHT22;3764;48.126;11.594;2023-05-07T15:34:04;20.50;99.90
7445;DHT22;3764;48.126;11.594;2023-05-07T15:36:32;20.50;99.90
7445;DHT22;3764;48.126;11.594;2023-05-07T15:38:59;20.40;99.90
7445;DHT22;3764;48.126;11.594;2023-05-07T15:41:28;20.40;99.90
7445;DHT22;3764;48.126;11.594;2023-05-07T15:43:55;20.40;99.90
7445;DHT22;3764;48.126;11.594;2023-05-07T15:46:24;20.30;99.90
7445;DHT22;3764;48.126;11.594;2023-05-07T15:48:53;20.30;99.90
7445;DHT22;3764;48.126;11.594;2023-05-07T15:51:20;20.30;99.90
7445;DHT22;3764;48.126;11.594;2023-05-07T15:53:48;20.20;99.90